sensor_id;sensor_type;location;lat;lon;timestamp;temperature;humidity
871;DHT22;422;51.280;7.236;2023-04-03T00:01:05;-0.60;1.00
871;DHT22;422;51.280;7.236;2023-04-03T00:03:33;-0.70;1.00
871;DHT22;422;51.280;7.236;2023-04-03T00:06:01;-0.60;42.90
871;DHT22;422;51.280;7.236;2023-04-03T00:08:29;-0.60;99.90
871;DHT22;422;51.280;7.236;2023-04-03T00:10:58;-0.60;99.90
871;DHT22;422;51.280;7.236;2023-04-03T00:13:25;-0.60;99.90
871;DHT22;422;51.280;7.236;2023-04-03T00:15:52;-0.70;99.90
871;DHT22;422;51.280;7.236;2023-04-03T00:18:21;-0.70;99.90
871;DHT22;422;51.280;7.236;2023-04-03T00:20:49;-0.60;99.90
871;DHT22;422;51.280;7.236;2023-04-03T00:23:17;-0.60;99.90
871;DHT22;422;51.280;7.236;2023-04-03T00:25:44;-0.70;99.90
871;DHT22;422;51.280;7.236;2023-04-03T00:28:11;-0.70;99.90
871;DHT22;422;51.280;7.236;2023-04-03T00:30:38;-0.80;99.90
871;DHT22;422;51.280;7.236;2023-04-03T00:33:05;-0.90;99.90
871;DHT22;422;51.280;7.236;2023-04-03T00:35:37;-1.00;15.50
871;DHT22;422;51.280;7.236;2023-04-03T00:38:04;-1.00;1.00
871;DHT22;422;51.280;7.236;2023-04-03T00:40:34;-1.00;1.00
871;DHT22;422;51.280;7.236;2023-04-03T00:43:05;-1.00;99.90
871;DHT22;422;51.280;7.236;2023-04-03T00:45:38;-1.00;99.90
871;DHT22;422;51.280;7.236;2023-04-03T00:48:08;-1.10;99.90
871;DHT22;422;51.280;7.236;2023-04-03T00:50:40;-0.90;73.50
871;DHT22;422;51.280;7.236;2023-04-03T00:53:12;-0.90;99.90
871;DHT22;422;51.280;7.236;2023-04-03T00:55:42;-0.90;99.90
871;DHT22;422;51.280;7.236;2023-04-03T00:58:10;-1.00;99.90
871;DHT22;422;51.280;7.236;2023-04-03T01:00:41;-1.00;99.90
871;DHT22;422;51.280;7.236;2023-04-03T01:03:10;-1.00;99.90
871;DHT22;422;51.280;7.236;2023-04-03T01:05:39;-1.10;99.90
871;DHT22;422;51.280;7.236;2023-04-03T01:08:07;-1.10;99.90
871;DHT22;422;51.280;7.236;2023-04-03T01:10:34;-1.00;96.80
871;DHT22;422;51.280;7.236;2023-04-03T01:13:01;-1.10;65.60
871;DHT22;422;51.280;7.236;2023-04-03T01:15:43;-1.10;57.60
871;DHT22;422;51.280;7.236;2023-04-03T01:18:10;-1.10;99.90
871;DHT22;422;51.280;7.236;2023-04-03T01:24:22;-1.10;35.10
871;DHT22;422;51.280;7.236;2023-04-03T01:26:52;-1.20;23.00
871;DHT22;422;51.280;7.236;2023-04-03T01:29:20;-1.20;99.90
871;DHT22;422;51.280;7.236;2023-04-03T01:31:51;-1.10;99.90
871;DHT22;422;51.280;7.236;2023-04-03T01:34:19;-1.10;99.90
871;DHT22;422;51.280;7.236;2023-04-03T01:36:47;-1.00;99.90
871;DHT22;422;51.280;7.236;2023-04-03T01:39:14;-1.10;99.90
871;DHT22;422;51.280;7.236;2023-04-03T01:41:42;-1.00;99.90
871;DHT22;422;51.280;7.236;2023-04-03T01:44:12;-1.00;99.90
871;DHT22;422;51.280;7.236;2023-04-03T01:46:39;-1.10;99.90
871;DHT22;422;51.280;7.236;2023-04-03T01:49:09;-1.20;99.90
871;DHT22;422;51.280;7.236;2023-04-03T01:51:36;-1.20;99.90
871;DHT22;422;51.280;7.236;2023-04-03T01:54:04;-1.10;99.90
871;DHT22;422;51.280;7.236;2023-04-03T01:56:33;-1.20;99.90
871;DHT22;422;51.280;7.236;2023-04-03T01:59:00;-1.10;99.90
871;DHT22;422;51.280;7.236;2023-04-03T02:01:27;-1.20;99.90
871;DHT22;422;51.280;7.236;2023-04-03T02:03:55;-1.30;99.90
871;DHT22;422;51.280;7.236;2023-04-03T02:06:23;-1.20;99.90
871;DHT22;422;51.280;7.236;2023-04-03T02:08:50;-1.20;99.90
871;DHT22;422;51.280;7.236;2023-04-03T02:11:18;-1.30;99.90
871;DHT22;422;51.280;7.236;2023-04-03T02:13:45;-1.20;99.90
871;DHT22;422;51.280;7.236;2023-04-03T02:16:12;-1.30;99.90
871;DHT22;422;51.280;7.236;2023-04-03T02:18:40;-1.20;99.90
871;DHT22;422;51.280;7.236;2023-04-03T02:21:07;-1.30;99.90
871;DHT22;422;51.280;7.236;2023-04-03T02:23:36;-1.30;99.90
871;DHT22;422;51.280;7.236;2023-04-03T02:26:05;-1.30;99.90
871;DHT22;422;51.280;7.236;2023-04-03T02:28:33;-1.30;99.90
871;DHT22;422;51.280;7.236;2023-04-03T02:31:01;-1.30;99.90
871;DHT22;422;51.280;7.236;2023-04-03T02:33:28;-1.30;99.90
871;DHT22;422;51.280;7.236;2023-04-03T02:35:57;-1.30;99.90
871;DHT22;422;51.280;7.236;2023-04-03T02:38:25;-1.40;99.90
871;DHT22;422;51.280;7.236;2023-04-03T02:41:00;-1.40;99.90
871;DHT22;422;51.280;7.236;2023-04-03T02:43:28;-1.40;99.90
871;DHT22;422;51.280;7.236;2023-04-03T02:45:55;-1.40;99.90
871;DHT22;422;51.280;7.236;2023-04-03T02:48:23;-1.40;99.90
871;DHT22;422;51.280;7.236;2023-04-03T02:50:51;-1.30;99.90
871;DHT22;422;51.280;7.236;2023-04-03T02:53:18;-1.40;99.90
871;DHT22;422;51.280;7.236;2023-04-03T02:55:46;-1.30;99.90
871;DHT22;422;51.280;7.236;2023-04-03T02:58:14;-1.30;99.90
871;DHT22;422;51.280;7.236;2023-04-03T03:00:42;-1.30;99.90
871;DHT22;422;51.280;7.236;2023-04-03T03:03:09;-1.30;99.90
871;DHT22;422;51.280;7.236;2023-04-03T03:05:37;-1.20;99.90
871;DHT22;422;51.280;7.236;2023-04-03T03:08:04;-1.20;99.90
871;DHT22;422;51.280;7.236;2023-04-03T03:10:31;-1.10;99.90
871;DHT22;422;51.280;7.236;2023-04-03T03:12:58;-1.10;99.90
871;DHT22;422;51.280;7.236;2023-04-03T03:15:27;-1.10;99.90
871;DHT22;422;51.280;7.236;2023-04-03T03:17:54;-1.00;99.90
871;DHT22;422;51.280;7.236;2023-04-03T03:20:21;-1.00;99.90
871;DHT22;422;51.280;7.236;2023-04-03T03:22:48;-0.90;99.90
871;DHT22;422;51.280;7.236;2023-04-03T03:25:16;-0.90;99.90
871;DHT22;422;51.280;7.236;2023-04-03T03:27:43;-0.90;99.90
871;DHT22;422;51.280;7.236;2023-04-03T03:30:11;-0.80;99.90
871;DHT22;422;51.280;7.236;2023-04-03T03:32:40;-0.80;99.90
871;DHT22;422;51.280;7.236;2023-04-03T03:35:09;-0.80;99.90
871;DHT22;422;51.280;7.236;2023-04-03T03:37:36;-0.90;99.90
871;DHT22;422;51.280;7.236;2023-04-03T03:40:05;-0.90;99.90
871;DHT22;422;51.280;7.236;2023-04-03T03:42:32;-0.90;99.90
871;DHT22;422;51.280;7.236;2023-04-03T03:44:59;-0.90;99.90
871;DHT22;422;51.280;7.236;2023-04-03T03:47:27;-0.90;99.90
871;DHT22;422;51.280;7.236;2023-04-03T03:49:57;-0.90;99.90
871;DHT22;422;51.280;7.236;2023-04-03T03:52:25;-0.90;99.90
871;DHT22;422;51.280;7.236;2023-04-03T03:54:52;-0.90;99.90
871;DHT22;422;51.280;7.236;2023-04-03T03:57:19;-1.00;99.90
871;DHT22;422;51.280;7.236;2023-04-03T03:59:46;-0.80;99.90
871;DHT22;422;51.280;7.236;2023-04-03T04:02:14;-0.80;99.90
871;DHT22;422;51.280;7.236;2023-04-03T04:04:42;-0.80;99.90
871;DHT22;422;51.280;7.236;2023-04-03T04:07:10;-0.90;99.90
871;DHT22;422;51.280;7.236;2023-04-03T04:09:37;-0.90;99.90
871;DHT22;422;51.280;7.236;2023-04-03T04:12:05;-0.90;99.90
871;DHT22;422;51.280;7.236;2023-04-03T04:14:32;-1.00;99.90
871;DHT22;422;51.280;7.236;2023-04-03T04:17:01;-1.00;99.90
871;DHT22;422;51.280;7.236;2023-04-03T04:19:29;-1.00;99.90
871;DHT22;422;51.280;7.236;2023-04-03T04:21:56;-1.10;99.90
871;DHT22;422;51.280;7.236;2023-04-03T04:24:25;-1.10;99.90
871;DHT22;422;51.280;7.236;2023-04-03T04:26:52;-1.10;99.90
871;DHT22;422;51.280;7.236;2023-04-03T04:29:19;-1.20;35.70
871;DHT22;422;51.280;7.236;2023-04-03T04:31:47;-1.30;1.00
871;DHT22;422;51.280;7.236;2023-04-03T04:34:14;-1.20;1.00
871;DHT22;422;51.280;7.236;2023-04-03T04:36:41;-1.40;1.00
871;DHT22;422;51.280;7.236;2023-04-03T04:39:09;-1.40;1.00
871;DHT22;422;51.280;7.236;2023-04-03T04:41:37;-1.40;1.00
871;DHT22;422;51.280;7.236;2023-04-03T04:44:04;-1.40;1.00
871;DHT22;422;51.280;7.236;2023-04-03T04:46:32;-1.30;1.00
871;DHT22;422;51.280;7.236;2023-04-03T04:48:59;-1.40;34.00
871;DHT22;422;51.280;7.236;2023-04-03T04:51:26;-1.30;49.60
871;DHT22;422;51.280;7.236;2023-04-03T04:53:54;-1.40;39.90
871;DHT22;422;51.280;7.236;2023-04-03T04:56:21;-1.30;99.70
871;DHT22;422;51.280;7.236;2023-04-03T04:58:50;-1.30;99.90
871;DHT22;422;51.280;7.236;2023-04-03T05:01:17;-1.30;99.90
871;DHT22;422;51.280;7.236;2023-04-03T05:03:44;-1.20;99.90
871;DHT22;422;51.280;7.236;2023-04-03T05:06:13;-1.20;99.90
871;DHT22;422;51.280;7.236;2023-04-03T05:08:40;-1.20;99.90
871;DHT22;422;51.280;7.236;2023-04-03T05:11:07;-1.10;99.90
871;DHT22;422;51.280;7.236;2023-04-03T05:13:34;-1.10;99.90
871;DHT22;422;51.280;7.236;2023-04-03T05:16:04;-1.10;99.90
871;DHT22;422;51.280;7.236;2023-04-03T05:18:31;-1.00;99.90
871;DHT22;422;51.280;7.236;2023-04-03T05:20:59;-1.00;99.90
871;DHT22;422;51.280;7.236;2023-04-03T05:23:26;-0.90;99.90
871;DHT22;422;51.280;7.236;2023-04-03T05:25:54;-0.90;99.90
871;DHT22;422;51.280;7.236;2023-04-03T05:28:21;-0.90;99.90
871;DHT22;422;51.280;7.236;2023-04-03T05:30:53;-0.90;99.90
871;DHT22;422;51.280;7.236;2023-04-03T05:33:23;-0.80;99.90
871;DHT22;422;51.280;7.236;2023-04-03T05:35:50;-0.80;99.90
871;DHT22;422;51.280;7.236;2023-04-03T05:38:18;-0.70;99.90
871;DHT22;422;51.280;7.236;2023-04-03T05:40:46;-0.70;99.90
871;DHT22;422;51.280;7.236;2023-04-03T05:43:13;-0.70;51.40
871;DHT22;422;51.280;7.236;2023-04-03T05:45:42;-0.60;1.00
871;DHT22;422;51.280;7.236;2023-04-03T05:48:09;-0.60;1.00
871;DHT22;422;51.280;7.236;2023-04-03T05:50:38;-0.60;1.00
871;DHT22;422;51.280;7.236;2023-04-03T05:53:08;-0.50;1.00
871;DHT22;422;51.280;7.236;2023-04-03T05:55:38;-0.50;1.00
871;DHT22;422;51.280;7.236;2023-04-03T05:58:05;-0.50;1.00
871;DHT22;422;51.280;7.236;2023-04-03T06:00:32;-0.40;1.00
871;DHT22;422;51.280;7.236;2023-04-03T06:02:59;-0.30;1.00
871;DHT22;422;51.280;7.236;2023-04-03T06:05:27;-0.20;1.00
871;DHT22;422;51.280;7.236;2023-04-03T06:07:56;-0.10;1.00
871;DHT22;422;51.280;7.236;2023-04-03T06:10:23;0.00;1.00
871;DHT22;422;51.280;7.236;2023-04-03T06:12:50;0.20;1.00
871;DHT22;422;51.280;7.236;2023-04-03T06:15:18;0.40;99.90
871;DHT22;422;51.280;7.236;2023-04-03T06:17:48;0.40;99.90
871;DHT22;422;51.280;7.236;2023-04-03T06:20:16;0.60;99.90
871;DHT22;422;51.280;7.236;2023-04-03T06:22:43;0.70;99.90
871;DHT22;422;51.280;7.236;2023-04-03T06:25:12;0.80;1.00
871;DHT22;422;51.280;7.236;2023-04-03T06:27:40;0.90;1.00
871;DHT22;422;51.280;7.236;2023-04-03T06:30:08;1.10;99.90
871;DHT22;422;51.280;7.236;2023-04-03T06:32:36;1.20;18.20
871;DHT22;422;51.280;7.236;2023-04-03T06:35:05;1.40;1.00
871;DHT22;422;51.280;7.236;2023-04-03T06:37:32;1.50;99.90
871;DHT22;422;51.280;7.236;2023-04-03T06:40:00;1.60;99.90
871;DHT22;422;51.280;7.236;2023-04-03T06:42:28;1.70;99.90
871;DHT22;422;51.280;7.236;2023-04-03T06:44:55;1.80;66.70
871;DHT22;422;51.280;7.236;2023-04-03T06:47:23;1.90;1.00
871;DHT22;422;51.280;7.236;2023-04-03T06:49:50;2.10;1.00
871;DHT22;422;51.280;7.236;2023-04-03T06:52:17;2.30;1.00
871;DHT22;422;51.280;7.236;2023-04-03T06:54:44;2.60;1.00
871;DHT22;422;51.280;7.236;2023-04-03T06:57:11;2.80;1.00
871;DHT22;422;51.280;7.236;2023-04-03T06:59:40;3.00;1.00
871;DHT22;422;51.280;7.236;2023-04-03T07:02:10;3.20;1.00
871;DHT22;422;51.280;7.236;2023-04-03T07:04:38;3.30;1.00
871;DHT22;422;51.280;7.236;2023-04-03T07:07:05;3.60;1.00
871;DHT22;422;51.280;7.236;2023-04-03T07:09:33;3.90;1.00
871;DHT22;422;51.280;7.236;2023-04-03T07:12:00;4.10;1.00
871;DHT22;422;51.280;7.236;2023-04-03T07:14:27;4.30;1.00
871;DHT22;422;51.280;7.236;2023-04-03T07:16:55;4.40;1.00
871;DHT22;422;51.280;7.236;2023-04-03T07:19:23;4.50;1.00
871;DHT22;422;51.280;7.236;2023-04-03T07:21:53;4.50;99.90
871;DHT22;422;51.280;7.236;2023-04-03T07:24:20;4.50;99.90
871;DHT22;422;51.280;7.236;2023-04-03T07:26:49;4.50;99.90
871;DHT22;422;51.280;7.236;2023-04-03T07:29:17;4.80;99.90
871;DHT22;422;51.280;7.236;2023-04-03T07:31:44;5.10;99.90
871;DHT22;422;51.280;7.236;2023-04-03T07:34:12;5.30;99.90
871;DHT22;422;51.280;7.236;2023-04-03T07:36:40;4.90;99.90
871;DHT22;422;51.280;7.236;2023-04-03T07:39:07;5.10;99.90
871;DHT22;422;51.280;7.236;2023-04-03T07:41:34;5.20;99.90
871;DHT22;422;51.280;7.236;2023-04-03T07:44:01;5.20;99.90
871;DHT22;422;51.280;7.236;2023-04-03T07:46:30;5.20;99.90
871;DHT22;422;51.280;7.236;2023-04-03T07:48:57;5.30;99.90
871;DHT22;422;51.280;7.236;2023-04-03T07:51:26;5.70;99.90
871;DHT22;422;51.280;7.236;2023-04-03T07:53:54;5.50;99.90
871;DHT22;422;51.280;7.236;2023-04-03T07:56:21;5.30;99.90
871;DHT22;422;51.280;7.236;2023-04-03T07:58:48;5.70;99.90
871;DHT22;422;51.280;7.236;2023-04-03T08:01:15;5.80;99.90
871;DHT22;422;51.280;7.236;2023-04-03T08:03:42;5.80;99.90
871;DHT22;422;51.280;7.236;2023-04-03T08:06:10;5.90;99.90
871;DHT22;422;51.280;7.236;2023-04-03T08:08:39;6.00;99.90
871;DHT22;422;51.280;7.236;2023-04-03T08:11:06;5.60;99.90
871;DHT22;422;51.280;7.236;2023-04-03T08:13:34;6.20;99.90
871;DHT22;422;51.280;7.236;2023-04-03T08:16:08;6.40;99.90
871;DHT22;422;51.280;7.236;2023-04-03T08:18:36;6.60;99.90
871;DHT22;422;51.280;7.236;2023-04-03T08:21:06;7.00;99.90
871;DHT22;422;51.280;7.236;2023-04-03T08:23:33;7.30;99.90
871;DHT22;422;51.280;7.236;2023-04-03T08:26:07;7.40;99.90
871;DHT22;422;51.280;7.236;2023-04-03T08:28:35;7.50;99.90
871;DHT22;422;51.280;7.236;2023-04-03T08:31:06;7.60;99.90
871;DHT22;422;51.280;7.236;2023-04-03T08:33:33;8.00;99.90
871;DHT22;422;51.280;7.236;2023-04-03T08:36:02;8.30;99.90
871;DHT22;422;51.280;7.236;2023-04-03T08:38:29;8.00;99.90
871;DHT22;422;51.280;7.236;2023-04-03T08:41:04;8.30;99.90
871;DHT22;422;51.280;7.236;2023-04-03T08:43:38;8.40;99.90
871;DHT22;422;51.280;7.236;2023-04-03T08:46:11;8.70;99.90
871;DHT22;422;51.280;7.236;2023-04-03T08:48:41;8.80;99.90
871;DHT22;422;51.280;7.236;2023-04-03T08:51:13;8.90;99.90
871;DHT22;422;51.280;7.236;2023-04-03T08:53:45;9.10;99.90
871;DHT22;422;51.280;7.236;2023-04-03T08:56:15;8.80;99.90
871;DHT22;422;51.280;7.236;2023-04-03T08:58:49;8.10;99.90
871;DHT22;422;51.280;7.236;2023-04-03T09:01:20;8.60;99.90
871;DHT22;422;51.280;7.236;2023-04-03T09:03:48;8.60;99.90
871;DHT22;422;51.280;7.236;2023-04-03T09:06:18;8.80;99.90
871;DHT22;422;51.280;7.236;2023-04-03T09:08:51;9.10;99.90
871;DHT22;422;51.280;7.236;2023-04-03T09:11:24;9.20;99.90
871;DHT22;422;51.280;7.236;2023-04-03T09:13:59;8.80;99.90
871;DHT22;422;51.280;7.236;2023-04-03T09:16:35;9.00;99.90
871;DHT22;422;51.280;7.236;2023-04-03T09:19:13;9.10;99.90
871;DHT22;422;51.280;7.236;2023-04-03T09:21:42;9.10;99.90
871;DHT22;422;51.280;7.236;2023-04-03T09:24:12;8.40;99.90
871;DHT22;422;51.280;7.236;2023-04-03T09:26:43;8.30;99.90
871;DHT22;422;51.280;7.236;2023-04-03T09:29:17;8.80;99.90
871;DHT22;422;51.280;7.236;2023-04-03T09:31:50;9.20;99.90
871;DHT22;422;51.280;7.236;2023-04-03T09:34:24;9.10;99.90
871;DHT22;422;51.280;7.236;2023-04-03T09:36:54;9.70;99.90
871;DHT22;422;51.280;7.236;2023-04-03T09:39:23;9.90;99.90
871;DHT22;422;51.280;7.236;2023-04-03T09:42:01;10.50;99.90
871;DHT22;422;51.280;7.236;2023-04-03T09:44:31;10.60;99.90
871;DHT22;422;51.280;7.236;2023-04-03T09:46:59;10.30;99.90
871;DHT22;422;51.280;7.236;2023-04-03T09:49:26;10.20;99.90
871;DHT22;422;51.280;7.236;2023-04-03T09:51:53;10.00;99.90
871;DHT22;422;51.280;7.236;2023-04-03T09:54:35;10.60;99.90
871;DHT22;422;51.280;7.236;2023-04-03T09:57:08;11.10;99.90
871;DHT22;422;51.280;7.236;2023-04-03T09:59:44;10.90;99.90
871;DHT22;422;51.280;7.236;2023-04-03T10:02:36;10.60;99.90
871;DHT22;422;51.280;7.236;2023-04-03T10:05:26;10.60;99.90
871;DHT22;422;51.280;7.236;2023-04-03T10:08:08;10.60;99.90
871;DHT22;422;51.280;7.236;2023-04-03T10:10:35;10.90;99.90
871;DHT22;422;51.280;7.236;2023-04-03T10:13:07;11.10;99.90
871;DHT22;422;51.280;7.236;2023-04-03T10:15:40;11.30;99.90
871;DHT22;422;51.280;7.236;2023-04-03T10:18:26;11.70;99.90
871;DHT22;422;51.280;7.236;2023-04-03T10:20:59;11.70;99.90
871;DHT22;422;51.280;7.236;2023-04-03T10:23:36;11.70;99.90
871;DHT22;422;51.280;7.236;2023-04-03T10:26:16;11.30;99.90
871;DHT22;422;51.280;7.236;2023-04-03T10:28:55;11.10;99.90
871;DHT22;422;51.280;7.236;2023-04-03T10:31:29;11.50;99.90
871;DHT22;422;51.280;7.236;2023-04-03T10:34:05;11.70;99.90
871;DHT22;422;51.280;7.236;2023-04-03T10:36:38;12.00;99.90
871;DHT22;422;51.280;7.236;2023-04-03T10:39:17;12.20;99.90
871;DHT22;422;51.280;7.236;2023-04-03T10:41:56;12.10;99.90
871;DHT22;422;51.280;7.236;2023-04-03T10:44:32;12.10;99.90
871;DHT22;422;51.280;7.236;2023-04-03T10:47:11;12.40;99.90
871;DHT22;422;51.280;7.236;2023-04-03T10:49:48;12.40;99.90
871;DHT22;422;51.280;7.236;2023-04-03T10:52:22;12.60;99.90
871;DHT22;422;51.280;7.236;2023-04-03T10:54:59;12.40;99.90
871;DHT22;422;51.280;7.236;2023-04-03T10:57:29;12.40;99.90
871;DHT22;422;51.280;7.236;2023-04-03T10:59:59;12.40;99.90
871;DHT22;422;51.280;7.236;2023-04-03T11:02:32;12.60;99.90
871;DHT22;422;51.280;7.236;2023-04-03T11:05:02;12.80;99.90
871;DHT22;422;51.280;7.236;2023-04-03T11:07:34;12.30;99.90
871;DHT22;422;51.280;7.236;2023-04-03T11:10:11;12.60;99.90
871;DHT22;422;51.280;7.236;2023-04-03T11:12:43;12.50;99.90
871;DHT22;422;51.280;7.236;2023-04-03T11:15:13;12.60;99.90
871;DHT22;422;51.280;7.236;2023-04-03T11:17:46;12.30;99.90
871;DHT22;422;51.280;7.236;2023-04-03T11:20:19;12.40;99.90
871;DHT22;422;51.280;7.236;2023-04-03T11:22:50;12.60;99.90
871;DHT22;422;51.280;7.236;2023-04-03T11:25:20;12.90;99.90
871;DHT22;422;51.280;7.236;2023-04-03T11:27:54;13.20;99.90
871;DHT22;422;51.280;7.236;2023-04-03T11:30:24;12.90;99.90
871;DHT22;422;51.280;7.236;2023-04-03T11:35:54;12.70;99.90
871;DHT22;422;51.280;7.236;2023-04-03T11:38:25;12.30;99.90
871;DHT22;422;51.280;7.236;2023-04-03T11:40:55;12.60;99.90
871;DHT22;422;51.280;7.236;2023-04-03T11:43:25;12.40;99.90
871;DHT22;422;51.280;7.236;2023-04-03T11:45:57;12.50;99.90
871;DHT22;422;51.280;7.236;2023-04-03T11:48:56;11.80;99.90
871;DHT22;422;51.280;7.236;2023-04-03T11:51:42;12.00;99.90
871;DHT22;422;51.280;7.236;2023-04-03T11:54:43;12.40;99.90
871;DHT22;422;51.280;7.236;2023-04-03T11:57:44;12.30;99.90
871;DHT22;422;51.280;7.236;2023-04-03T12:04:03;12.80;99.90
871;DHT22;422;51.280;7.236;2023-04-03T12:10:18;12.80;99.90
871;DHT22;422;51.280;7.236;2023-04-03T12:12:58;13.00;99.90
871;DHT22;422;51.280;7.236;2023-04-03T12:15:54;13.10;99.90
871;DHT22;422;51.280;7.236;2023-04-03T12:18:57;13.40;99.90
871;DHT22;422;51.280;7.236;2023-04-03T12:24:27;13.60;99.90
871;DHT22;422;51.280;7.236;2023-04-03T12:27:09;14.10;99.90
871;DHT22;422;51.280;7.236;2023-04-03T12:29:46;13.10;99.90
871;DHT22;422;51.280;7.236;2023-04-03T12:32:24;12.60;99.90
871;DHT22;422;51.280;7.236;2023-04-03T12:35:08;12.90;99.90
871;DHT22;422;51.280;7.236;2023-04-03T12:37:48;13.70;99.90
871;DHT22;422;51.280;7.236;2023-04-03T12:40:26;13.20;99.90
871;DHT22;422;51.280;7.236;2023-04-03T12:43:09;13.50;99.90
871;DHT22;422;51.280;7.236;2023-04-03T12:45:43;13.80;99.90
871;DHT22;422;51.280;7.236;2023-04-03T12:48:17;13.90;99.90
871;DHT22;422;51.280;7.236;2023-04-03T12:50:46;13.70;99.90
871;DHT22;422;51.280;7.236;2023-04-03T12:53:16;13.60;99.90
871;DHT22;422;51.280;7.236;2023-04-03T12:55:45;13.60;99.90
871;DHT22;422;51.280;7.236;2023-04-03T12:58:22;13.80;99.90
871;DHT22;422;51.280;7.236;2023-04-03T13:01:00;14.00;99.90
871;DHT22;422;51.280;7.236;2023-04-03T13:03:28;14.00;99.90
871;DHT22;422;51.280;7.236;2023-04-03T13:05:58;14.30;99.90
871;DHT22;422;51.280;7.236;2023-04-03T13:08:26;14.20;99.90
871;DHT22;422;51.280;7.236;2023-04-03T13:10:58;13.60;99.90
871;DHT22;422;51.280;7.236;2023-04-03T13:13:28;13.80;99.90
871;DHT22;422;51.280;7.236;2023-04-03T13:15:55;14.00;99.90
871;DHT22;422;51.280;7.236;2023-04-03T13:18:25;13.50;99.90
871;DHT22;422;51.280;7.236;2023-04-03T13:20:55;13.50;99.90
871;DHT22;422;51.280;7.236;2023-04-03T13:23:24;13.50;99.90
871;DHT22;422;51.280;7.236;2023-04-03T13:25:51;12.80;99.90
871;DHT22;422;51.280;7.236;2023-04-03T13:28:21;13.00;99.90
871;DHT22;422;51.280;7.236;2023-04-03T13:31:06;13.40;99.90
871;DHT22;422;51.280;7.236;2023-04-03T13:33:36;13.50;99.90
871;DHT22;422;51.280;7.236;2023-04-03T13:36:07;13.00;99.90
871;DHT22;422;51.280;7.236;2023-04-03T13:38:38;13.50;99.90
871;DHT22;422;51.280;7.236;2023-04-03T13:41:23;13.60;99.90
871;DHT22;422;51.280;7.236;2023-04-03T13:43:50;13.00;99.90
871;DHT22;422;51.280;7.236;2023-04-03T13:46:26;12.70;99.90
871;DHT22;422;51.280;7.236;2023-04-03T13:48:55;12.60;99.90
871;DHT22;422;51.280;7.236;2023-04-03T13:51:24;13.10;99.90
871;DHT22;422;51.280;7.236;2023-04-03T13:53:54;12.90;99.90
871;DHT22;422;51.280;7.236;2023-04-03T13:56:26;13.20;99.90
871;DHT22;422;51.280;7.236;2023-04-03T13:58:58;13.60;99.90
871;DHT22;422;51.280;7.236;2023-04-03T14:01:38;12.70;99.90
871;DHT22;422;51.280;7.236;2023-04-03T14:04:14;12.90;99.90
871;DHT22;422;51.280;7.236;2023-04-03T14:06:41;13.30;99.90
871;DHT22;422;51.280;7.236;2023-04-03T14:09:09;13.00;99.90
871;DHT22;422;51.280;7.236;2023-04-03T14:11:36;12.70;99.90
871;DHT22;422;51.280;7.236;2023-04-03T14:14:11;13.00;99.90
871;DHT22;422;51.280;7.236;2023-04-03T14:16:43;13.20;99.90
871;DHT22;422;51.280;7.236;2023-04-03T14:19:19;13.20;99.90
871;DHT22;422;51.280;7.236;2023-04-03T14:21:47;13.50;99.90
871;DHT22;422;51.280;7.236;2023-04-03T14:24:14;13.40;99.90
871;DHT22;422;51.280;7.236;2023-04-03T14:26:43;12.70;99.90
871;DHT22;422;51.280;7.236;2023-04-03T14:29:11;12.60;99.90
871;DHT22;422;51.280;7.236;2023-04-03T14:31:41;12.10;99.90
871;DHT22;422;51.280;7.236;2023-04-03T14:34:09;12.10;99.90
871;DHT22;422;51.280;7.236;2023-04-03T14:36:38;12.20;99.90
871;DHT22;422;51.280;7.236;2023-04-03T14:39:07;12.40;99.90
871;DHT22;422;51.280;7.236;2023-04-03T14:41:34;12.50;99.90
871;DHT22;422;51.280;7.236;2023-04-03T14:44:02;12.60;99.90
871;DHT22;422;51.280;7.236;2023-04-03T14:46:31;12.80;99.90
871;DHT22;422;51.280;7.236;2023-04-03T14:49:00;12.90;99.90
871;DHT22;422;51.280;7.236;2023-04-03T14:51:28;11.80;99.90
871;DHT22;422;51.280;7.236;2023-04-03T14:53:55;11.40;99.90
871;DHT22;422;51.280;7.236;2023-04-03T14:56:24;11.60;99.90
871;DHT22;422;51.280;7.236;2023-04-03T14:58:56;11.70;99.90
871;DHT22;422;51.280;7.236;2023-04-03T15:01:24;11.20;99.90
871;DHT22;422;51.280;7.236;2023-04-03T15:03:51;11.50;99.90
871;DHT22;422;51.280;7.236;2023-04-03T15:06:20;11.60;99.90
871;DHT22;422;51.280;7.236;2023-04-03T15:08:48;11.60;99.90
871;DHT22;422;51.280;7.236;2023-04-03T15:11:15;11.40;99.90
871;DHT22;422;51.280;7.236;2023-04-03T15:13:42;11.60;99.90
871;DHT22;422;51.280;7.236;2023-04-03T15:16:15;11.40;99.90
871;DHT22;422;51.280;7.236;2023-04-03T15:18:43;12.00;99.90
871;DHT22;422;51.280;7.236;2023-04-03T15:21:10;11.70;99.90
871;DHT22;422;51.280;7.236;2023-04-03T15:23:39;11.70;99.90
871;DHT22;422;51.280;7.236;2023-04-03T15:26:07;11.40;99.90
871;DHT22;422;51.280;7.236;2023-04-03T15:28:37;10.60;99.90
871;DHT22;422;51.280;7.236;2023-04-03T15:31:05;10.40;99.90
871;DHT22;422;51.280;7.236;2023-04-03T15:33:34;10.30;99.90
871;DHT22;422;51.280;7.236;2023-04-03T15:36:02;10.60;99.90
871;DHT22;422;51.280;7.236;2023-04-03T15:38:29;10.70;99.90
871;DHT22;422;51.280;7.236;2023-04-03T15:40:58;10.50;99.90
871;DHT22;422;51.280;7.236;2023-04-03T15:43:25;10.10;99.90
871;DHT22;422;51.280;7.236;2023-04-03T15:45:52;10.20;99.90
871;DHT22;422;51.280;7.236;2023-04-03T15:48:23;10.50;99.90
871;DHT22;422;51.280;7.236;2023-04-03T15:50:50;9.90;99.90
871;DHT22;422;51.280;7.236;2023-04-03T15:53:17;10.00;99.90
871;DHT22;422;51.280;7.236;2023-04-03T15:55:45;9.90;99.90
871;DHT22;422;51.280;7.236;2023-04-03T15:58:13;9.80;99.90
871;DHT22;422;51.280;7.236;2023-04-03T16:00:40;9.70;99.90
871;DHT22;422;51.280;7.236;2023-04-03T16:03:10;9.80;99.90
871;DHT22;422;51.280;7.236;2023-04-03T16:05:38;9.70;99.90
871;DHT22;422;51.280;7.236;2023-04-03T16:08:07;9.70;99.90
871;DHT22;422;51.280;7.236;2023-04-03T16:10:35;9.70;99.90
871;DHT22;422;51.280;7.236;2023-04-03T16:13:03;9.90;99.90
871;DHT22;422;51.280;7.236;2023-04-03T16:15:33;9.80;99.90
871;DHT22;422;51.280;7.236;2023-04-03T16:18:01;9.80;99.90
871;DHT22;422;51.280;7.236;2023-04-03T16:20:29;9.60;99.90
871;DHT22;422;51.280;7.236;2023-04-03T16:22:57;9.60;99.90
871;DHT22;422;51.280;7.236;2023-04-03T16:25:25;9.40;99.90
871;DHT22;422;51.280;7.236;2023-04-03T16:27:52;9.60;99.90
871;DHT22;422;51.280;7.236;2023-04-03T16:30:20;9.70;99.90
871;DHT22;422;51.280;7.236;2023-04-03T16:32:48;9.70;99.90
871;DHT22;422;51.280;7.236;2023-04-03T16:35:16;9.80;99.90
871;DHT22;422;51.280;7.236;2023-04-03T16:37:43;9.60;99.90
871;DHT22;422;51.280;7.236;2023-04-03T16:40:12;9.40;99.90
871;DHT22;422;51.280;7.236;2023-04-03T16:42:39;9.30;99.90
871;DHT22;422;51.280;7.236;2023-04-03T16:45:07;9.10;99.90
871;DHT22;422;51.280;7.236;2023-04-03T16:47:34;8.70;99.90
871;DHT22;422;51.280;7.236;2023-04-03T16:50:04;8.80;99.90
871;DHT22;422;51.280;7.236;2023-04-03T16:52:31;8.60;99.90
871;DHT22;422;51.280;7.236;2023-04-03T16:55:00;8.50;99.90
871;DHT22;422;51.280;7.236;2023-04-03T16:57:27;8.60;99.90
871;DHT22;422;51.280;7.236;2023-04-03T16:59:54;8.40;99.90
871;DHT22;422;51.280;7.236;2023-04-03T17:02:23;8.20;99.90
871;DHT22;422;51.280;7.236;2023-04-03T17:04:51;7.90;99.90
871;DHT22;422;51.280;7.236;2023-04-03T17:07:21;7.70;99.90
871;DHT22;422;51.280;7.236;2023-04-03T17:09:51;7.50;99.90
871;DHT22;422;51.280;7.236;2023-04-03T17:12:19;7.40;99.90
871;DHT22;422;51.280;7.236;2023-04-03T17:14:47;7.40;99.90
871;DHT22;422;51.280;7.236;2023-04-03T17:17:15;7.20;99.90